sensor_id;sensor_type;location;lat;lon;timestamp;temperature;humidity
18506;DHT22;9382;53.242;10.438;2023-04-24T00:00:58;12.70;99.90
18506;DHT22;9382;53.242;10.438;2023-04-24T00:03:26;12.70;99.90
18506;DHT22;9382;53.242;10.438;2023-04-24T00:05:55;12.70;99.90
18506;DHT22;9382;53.242;10.438;2023-04-24T00:08:24;12.70;99.90
18506;DHT22;9382;53.242;10.438;2023-04-24T00:10:51;12.70;99.90
18506;DHT22;9382;53.242;10.438;2023-04-24T00:13:18;12.60;99.90
18506;DHT22;9382;53.242;10.438;2023-04-24T00:15:45;12.60;99.90
18506;DHT22;9382;53.242;10.438;2023-04-24T00:18:12;12.60;99.90
18506;DHT22;9382;53.242;10.438;2023-04-24T00:20:39;12.50;99.90
18506;DHT22;9382;53.242;10.438;2023-04-24T00:23:07;12.50;99.90
18506;DHT22;9382;53.242;10.438;2023-04-24T00:25:34;12.40;99.90
18506;DHT22;9382;53.242;10.438;2023-04-24T00:28:01;12.40;99.90
18506;DHT22;9382;53.242;10.438;2023-04-24T00:30:27;12.30;99.90
18506;DHT22;9382;53.242;10.438;2023-04-24T00:32:55;12.30;99.90
18506;DHT22;9382;53.242;10.438;2023-04-24T00:35:21;12.30;99.90
18506;DHT22;9382;53.242;10.438;2023-04-24T00:37:48;12.30;99.90
18506;DHT22;9382;53.242;10.438;2023-04-24T00:40:17;12.30;99.90
18506;DHT22;9382;53.242;10.438;2023-04-24T00:42:44;12.20;99.90
18506;DHT22;9382;53.242;10.438;2023-04-24T00:45:10;12.30;99.90
18506;DHT22;9382;53.242;10.438;2023-04-24T00:47:38;12.30;99.90
18506;DHT22;9382;53.242;10.438;2023-04-24T00:50:06;12.30;99.90
18506;DHT22;9382;53.242;10.438;2023-04-24T00:52:33;12.30;99.90
18506;DHT22;9382;53.242;10.438;2023-04-24T00:55:00;12.30;99.90
18506;DHT22;9382;53.242;10.438;2023-04-24T00:57:28;12.30;99.90
18506;DHT22;9382;53.242;10.438;2023-04-24T00:59:55;12.30;99.90
18506;DHT22;9382;53.242;10.438;2023-04-24T01:02:22;12.40;99.90
18506;DHT22;9382;53.242;10.438;2023-04-24T01:04:50;12.40;99.90
18506;DHT22;9382;53.242;10.438;2023-04-24T01:07:19;12.40;99.90
18506;DHT22;9382;53.242;10.438;2023-04-24T01:09:48;12.40;99.90
18506;DHT22;9382;53.242;10.438;2023-04-24T01:12:17;12.40;99.90
18506;DHT22;9382;53.242;10.438;2023-04-24T01:14:45;12.30;99.90
18506;DHT22;9382;53.242;10.438;2023-04-24T01:17:12;12.30;99.90
18506;DHT22;9382;53.242;10.438;2023-04-24T01:19:39;12.20;99.90
18506;DHT22;9382;53.242;10.438;2023-04-24T01:22:12;12.20;99.90
18506;DHT22;9382;53.242;10.438;2023-04-24T01:24:39;12.10;99.90
18506;DHT22;9382;53.242;10.438;2023-04-24T01:27:06;12.10;99.90
18506;DHT22;9382;53.242;10.438;2023-04-24T01:29:34;12.00;99.90
18506;DHT22;9382;53.242;10.438;2023-04-24T01:32:00;12.00;99.90
18506;DHT22;9382;53.242;10.438;2023-04-24T01:34:27;11.90;99.90
18506;DHT22;9382;53.242;10.438;2023-04-24T01:36:54;11.90;99.90
18506;DHT22;9382;53.242;10.438;2023-04-24T01:39:23;11.80;99.90
18506;DHT22;9382;53.242;10.438;2023-04-24T01:41:51;11.80;99.90
18506;DHT22;9382;53.242;10.438;2023-04-24T01:44:18;11.70;99.90
18506;DHT22;9382;53.242;10.438;2023-04-24T01:46:44;11.70;99.90
18506;DHT22;9382;53.242;10.438;2023-04-24T01:49:11;11.60;99.90
18506;DHT22;9382;53.242;10.438;2023-04-24T01:51:38;11.50;99.90
18506;DHT22;9382;53.242;10.438;2023-04-24T01:54:05;11.50;99.90
18506;DHT22;9382;53.242;10.438;2023-04-24T01:56:34;11.50;99.90
18506;DHT22;9382;53.242;10.438;2023-04-24T01:59:03;11.50;99.90
18506;DHT22;9382;53.242;10.438;2023-04-24T02:01:34;11.40;99.90
18506;DHT22;9382;53.242;10.438;2023-04-24T02:04:02;11.50;99.90
18506;DHT22;9382;53.242;10.438;2023-04-24T02:06:29;11.50;99.90
18506;DHT22;9382;53.242;10.438;2023-04-24T02:08:57;11.40;99.90
18506;DHT22;9382;53.242;10.438;2023-04-24T02:11:24;11.40;99.90
18506;DHT22;9382;53.242;10.438;2023-04-24T02:13:52;11.40;99.90
18506;DHT22;9382;53.242;10.438;2023-04-24T02:16:19;11.30;99.90
18506;DHT22;9382;53.242;10.438;2023-04-24T02:18:45;11.30;99.90
18506;DHT22;9382;53.242;10.438;2023-04-24T02:21:12;11.20;99.90
18506;DHT22;9382;53.242;10.438;2023-04-24T02:23:39;11.20;99.90
18506;DHT22;9382;53.242;10.438;2023-04-24T02:26:06;11.20;99.90
18506;DHT22;9382;53.242;10.438;2023-04-24T02:28:33;11.10;99.90
18506;DHT22;9382;53.242;10.438;2023-04-24T02:31:01;11.10;99.90
18506;DHT22;9382;53.242;10.438;2023-04-24T02:33:27;11.00;99.90
18506;DHT22;9382;53.242;10.438;2023-04-24T02:35:54;11.00;99.90
18506;DHT22;9382;53.242;10.438;2023-04-24T02:38:21;10.90;99.90
18506;DHT22;9382;53.242;10.438;2023-04-24T02:40:47;10.90;99.90
18506;DHT22;9382;53.242;10.438;2023-04-24T02:43:14;10.90;99.90
18506;DHT22;9382;53.242;10.438;2023-04-24T02:45:41;10.80;99.90
18506;DHT22;9382;53.242;10.438;2023-04-24T02:48:09;10.80;99.90
18506;DHT22;9382;53.242;10.438;2023-04-24T02:50:36;10.90;99.90
18506;DHT22;9382;53.242;10.438;2023-04-24T02:53:02;10.90;99.90
18506;DHT22;9382;53.242;10.438;2023-04-24T02:55:29;10.90;99.90
18506;DHT22;9382;53.242;10.438;2023-04-24T02:57:56;11.00;99.90
18506;DHT22;9382;53.242;10.438;2023-04-24T03:00:23;11.00;99.90
18506;DHT22;9382;53.242;10.438;2023-04-24T03:02:49;11.00;99.90
18506;DHT22;9382;53.242;10.438;2023-04-24T03:05:17;10.90;99.90
18506;DHT22;9382;53.242;10.438;2023-04-24T03:07:45;10.90;99.90
18506;DHT22;9382;53.242;10.438;2023-04-24T03:10:12;10.80;99.90
18506;DHT22;9382;53.242;10.438;2023-04-24T03:12:39;10.90;99.90
18506;DHT22;9382;53.242;10.438;2023-04-24T03:15:07;10.90;99.90
18506;DHT22;9382;53.242;10.438;2023-04-24T03:17:34;10.90;99.90
18506;DHT22;9382;53.242;10.438;2023-04-24T03:20:01;10.90;99.90
18506;DHT22;9382;53.242;10.438;2023-04-24T03:22:29;10.90;99.90
18506;DHT22;9382;53.242;10.438;2023-04-24T03:24:58;10.80;99.90
18506;DHT22;9382;53.242;10.438;2023-04-24T03:27:24;10.80;99.90
18506;DHT22;9382;53.242;10.438;2023-04-24T03:29:51;10.70;99.90
18506;DHT22;9382;53.242;10.438;2023-04-24T03:32:20;10.70;99.90
18506;DHT22;9382;53.242;10.438;2023-04-24T03:34:47;10.70;99.90
18506;DHT22;9382;53.242;10.438;2023-04-24T03:37:14;10.70;99.90
18506;DHT22;9382;53.242;10.438;2023-04-24T03:39:42;10.70;99.90
18506;DHT22;9382;53.242;10.438;2023-04-24T03:42:09;10.60;99.90
18506;DHT22;9382;53.242;10.438;2023-04-24T03:44:36;10.60;99.90
18506;DHT22;9382;53.242;10.438;2023-04-24T03:47:03;10.50;99.90
18506;DHT22;9382;53.242;10.438;2023-04-24T03:49:30;10.50;99.90
18506;DHT22;9382;53.242;10.438;2023-04-24T03:51:57;10.40;99.90
18506;DHT22;9382;53.242;10.438;2023-04-24T03:54:23;10.40;99.90
18506;DHT22;9382;53.242;10.438;2023-04-24T03:56:52;10.40;99.90
18506;DHT22;9382;53.242;10.438;2023-04-24T03:59:18;10.40;99.90
18506;DHT22;9382;53.242;10.438;2023-04-24T04:01:45;10.30;99.90
18506;DHT22;9382;53.242;10.438;2023-04-24T04:04:12;10.30;99.90
18506;DHT22;9382;53.242;10.438;2023-04-24T04:06:39;10.20;99.90
18506;DHT22;9382;53.242;10.438;2023-04-24T04:09:06;10.20;99.90
18506;DHT22;9382;53.242;10.438;2023-04-24T04:11:34;10.20;99.90
18506;DHT22;9382;53.242;10.438;2023-04-24T04:14:02;10.20;99.90
18506;DHT22;9382;53.242;10.438;2023-04-24T04:16:29;10.10;99.90
18506;DHT22;9382;53.242;10.438;2023-04-24T04:18:56;10.10;99.90
18506;DHT22;9382;53.242;10.438;2023-04-24T04:21:22;10.00;99.90
18506;DHT22;9382;53.242;10.438;2023-04-24T04:23:49;10.00;99.90
18506;DHT22;9382;53.242;10.438;2023-04-24T04:26:16;9.90;99.90
18506;DHT22;9382;53.242;10.438;2023-04-24T04:28:44;9.90;99.90
18506;DHT22;9382;53.242;10.438;2023-04-24T04:31:14;9.80;99.90
18506;DHT22;9382;53.242;10.438;2023-04-24T04:33:41;9.80;99.90
18506;DHT22;9382;53.242;10.438;2023-04-24T04:36:07;9.80;99.90
18506;DHT22;9382;53.242;10.438;2023-04-24T04:38:34;9.80;99.90
18506;DHT22;9382;53.242;10.438;2023-04-24T04:41:03;9.80;99.90
18506;DHT22;9382;53.242;10.438;2023-04-24T04:43:29;9.90;99.90
18506;DHT22;9382;53.242;10.438;2023-04-24T04:45:58;9.90;99.90
18506;DHT22;9382;53.242;10.438;2023-04-24T04:48:27;9.80;99.90
18506;DHT22;9382;53.242;10.438;2023-04-24T04:50:54;9.90;99.90
18506;DHT22;9382;53.242;10.438;2023-04-24T04:53:20;9.80;99.90
18506;DHT22;9382;53.242;10.438;2023-04-24T04:55:47;9.80;99.90
18506;DHT22;9382;53.242;10.438;2023-04-24T04:58:14;9.90;99.90
18506;DHT22;9382;53.242;10.438;2023-04-24T05:00:41;9.90;99.90
18506;DHT22;9382;53.242;10.438;2023-04-24T05:03:07;9.90;99.90
18506;DHT22;9382;53.242;10.438;2023-04-24T05:05:36;9.90;99.90
18506;DHT22;9382;53.242;10.438;2023-04-24T05:08:06;10.00;99.90
18506;DHT22;9382;53.242;10.438;2023-04-24T05:10:32;10.00;99.90
18506;DHT22;9382;53.242;10.438;2023-04-24T05:12:59;10.10;99.90
18506;DHT22;9382;53.242;10.438;2023-04-24T05:15:26;10.10;99.90
18506;DHT22;9382;53.242;10.438;2023-04-24T05:17:53;10.20;99.90
18506;DHT22;9382;53.242;10.438;2023-04-24T05:20:19;10.20;99.90
18506;DHT22;9382;53.242;10.438;2023-04-24T05:22:47;10.30;99.90
18506;DHT22;9382;53.242;10.438;2023-04-24T05:25:14;10.30;99.90
18506;DHT22;9382;53.242;10.438;2023-04-24T05:27:41;10.30;99.90
18506;DHT22;9382;53.242;10.438;2023-04-24T05:30:09;10.30;99.90
18506;DHT22;9382;53.242;10.438;2023-04-24T05:32:35;10.30;99.90
18506;DHT22;9382;53.242;10.438;2023-04-24T05:35:02;10.40;99.90
18506;DHT22;9382;53.242;10.438;2023-04-24T05:37:29;10.40;99.90
18506;DHT22;9382;53.242;10.438;2023-04-24T05:39:57;10.50;99.90
18506;DHT22;9382;53.242;10.438;2023-04-24T05:42:24;10.60;99.90
18506;DHT22;9382;53.242;10.438;2023-04-24T05:44:51;10.60;99.90
18506;DHT22;9382;53.242;10.438;2023-04-24T05:47:19;10.70;99.90
18506;DHT22;9382;53.242;10.438;2023-04-24T05:49:47;10.70;99.90
18506;DHT22;9382;53.242;10.438;2023-04-24T05:52:13;10.80;99.90
18506;DHT22;9382;53.242;10.438;2023-04-24T05:54:40;10.90;99.90
18506;DHT22;9382;53.242;10.438;2023-04-24T05:57:08;10.90;99.90
18506;DHT22;9382;53.242;10.438;2023-04-24T05:59:37;11.00;99.90
18506;DHT22;9382;53.242;10.438;2023-04-24T06:02:04;11.00;99.90
18506;DHT22;9382;53.242;10.438;2023-04-24T06:04:31;11.10;99.90
18506;DHT22;9382;53.242;10.438;2023-04-24T06:06:58;11.20;99.90
18506;DHT22;9382;53.242;10.438;2023-04-24T06:09:25;11.20;99.90
18506;DHT22;9382;53.242;10.438;2023-04-24T06:11:52;11.30;99.90
18506;DHT22;9382;53.242;10.438;2023-04-24T06:14:20;11.40;99.90
18506;DHT22;9382;53.242;10.438;2023-04-24T06:16:47;11.50;99.90
18506;DHT22;9382;53.242;10.438;2023-04-24T06:19:14;11.60;99.90
18506;DHT22;9382;53.242;10.438;2023-04-24T06:21:40;11.70;99.90
18506;DHT22;9382;53.242;10.438;2023-04-24T06:24:07;11.70;99.90
18506;DHT22;9382;53.242;10.438;2023-04-24T06:26:34;11.80;99.90
18506;DHT22;9382;53.242;10.438;2023-04-24T06:29:01;11.90;99.90
18506;DHT22;9382;53.242;10.438;2023-04-24T06:31:29;12.00;99.90
18506;DHT22;9382;53.242;10.438;2023-04-24T06:33:55;12.10;99.90
18506;DHT22;9382;53.242;10.438;2023-04-24T06:36:22;12.10;99.90
18506;DHT22;9382;53.242;10.438;2023-04-24T06:38:49;12.20;99.90
18506;DHT22;9382;53.242;10.438;2023-04-24T06:41:16;12.30;99.90
18506;DHT22;9382;53.242;10.438;2023-04-24T06:43:42;12.40;99.90
18506;DHT22;9382;53.242;10.438;2023-04-24T06:46:10;12.50;99.90
18506;DHT22;9382;53.242;10.438;2023-04-24T06:48:39;12.50;99.90
18506;DHT22;9382;53.242;10.438;2023-04-24T06:51:05;12.60;99.90
18506;DHT22;9382;53.242;10.438;2023-04-24T06:53:32;12.70;99.90
18506;DHT22;9382;53.242;10.438;2023-04-24T06:55:59;12.80;99.90
18506;DHT22;9382;53.242;10.438;2023-04-24T06:58:26;12.90;99.90
18506;DHT22;9382;53.242;10.438;2023-04-24T07:00:53;13.00;99.90
18506;DHT22;9382;53.242;10.438;2023-04-24T07:03:19;13.10;99.90
18506;DHT22;9382;53.242;10.438;2023-04-24T07:05:48;13.30;99.90
18506;DHT22;9382;53.242;10.438;2023-04-24T07:08:15;13.40;99.90
18506;DHT22;9382;53.242;10.438;2023-04-24T07:10:43;13.50;99.90
18506;DHT22;9382;53.242;10.438;2023-04-24T07:13:10;13.60;99.90
18506;DHT22;9382;53.242;10.438;2023-04-24T07:15:37;13.70;99.90
18506;DHT22;9382;53.242;10.438;2023-04-24T07:18:04;13.70;99.90
18506;DHT22;9382;53.242;10.438;2023-04-24T07:20:31;13.70;99.90
18506;DHT22;9382;53.242;10.438;2023-04-24T07:23:00;13.60;99.90
18506;DHT22;9382;53.242;10.438;2023-04-24T07:25:26;13.50;99.90
18506;DHT22;9382;53.242;10.438;2023-04-24T07:27:53;13.60;99.90
18506;DHT22;9382;53.242;10.438;2023-04-24T07:30:20;13.60;99.90
18506;DHT22;9382;53.242;10.438;2023-04-24T07:32:46;13.70;99.90
18506;DHT22;9382;53.242;10.438;2023-04-24T07:35:13;13.70;99.90
18506;DHT22;9382;53.242;10.438;2023-04-24T07:37:40;13.90;99.90
18506;DHT22;9382;53.242;10.438;2023-04-24T07:40:12;14.00;99.90
18506;DHT22;9382;53.242;10.438;2023-04-24T07:42:39;14.00;99.90
18506;DHT22;9382;53.242;10.438;2023-04-24T07:45:07;13.80;99.90
18506;DHT22;9382;53.242;10.438;2023-04-24T07:47:34;13.70;99.90
18506;DHT22;9382;53.242;10.438;2023-04-24T07:50:02;13.60;99.90
18506;DHT22;9382;53.242;10.438;2023-04-24T07:52:28;13.60;99.90
18506;DHT22;9382;53.242;10.438;2023-04-24T07:54:55;13.50;99.90
18506;DHT22;9382;53.242;10.438;2023-04-24T07:57:25;13.60;99.90
18506;DHT22;9382;53.242;10.438;2023-04-24T07:59:52;13.80;99.90
18506;DHT22;9382;53.242;10.438;2023-04-24T08:02:19;13.90;99.90
18506;DHT22;9382;53.242;10.438;2023-04-24T08:04:47;13.90;99.90
18506;DHT22;9382;53.242;10.438;2023-04-24T08:07:13;13.90;99.90
18506;DHT22;9382;53.242;10.438;2023-04-24T08:09:41;14.00;99.90
18506;DHT22;9382;53.242;10.438;2023-04-24T08:12:08;14.30;99.90
18506;DHT22;9382;53.242;10.438;2023-04-24T08:14:36;14.30;99.90
18506;DHT22;9382;53.242;10.438;2023-04-24T08:17:02;14.40;99.90
18506;DHT22;9382;53.242;10.438;2023-04-24T08:19:29;14.60;99.90
18506;DHT22;9382;53.242;10.438;2023-04-24T08:21:56;14.70;99.90
18506;DHT22;9382;53.242;10.438;2023-04-24T08:24:23;15.00;99.90
18506;DHT22;9382;53.242;10.438;2023-04-24T08:26:50;15.10;99.90
18506;DHT22;9382;53.242;10.438;2023-04-24T08:29:17;15.30;99.90
18506;DHT22;9382;53.242;10.438;2023-04-24T08:31:46;15.30;99.90
18506;DHT22;9382;53.242;10.438;2023-04-24T08:34:12;15.20;99.90
18506;DHT22;9382;53.242;10.438;2023-04-24T08:36:39;14.90;99.90
18506;DHT22;9382;53.242;10.438;2023-04-24T08:39:07;14.50;99.90
18506;DHT22;9382;53.242;10.438;2023-04-24T08:41:34;14.20;99.90
18506;DHT22;9382;53.242;10.438;2023-04-24T08:44:02;14.20;99.90
18506;DHT22;9382;53.242;10.438;2023-04-24T08:46:30;14.20;99.90
18506;DHT22;9382;53.242;10.438;2023-04-24T08:48:58;14.20;99.90
18506;DHT22;9382;53.242;10.438;2023-04-24T08:51:26;14.20;99.90
18506;DHT22;9382;53.242;10.438;2023-04-24T08:53:54;14.20;99.90
18506;DHT22;9382;53.242;10.438;2023-04-24T08:56:22;14.30;99.90
18506;DHT22;9382;53.242;10.438;2023-04-24T08:58:50;14.30;99.90
18506;DHT22;9382;53.242;10.438;2023-04-24T09:01:18;14.40;99.90
18506;DHT22;9382;53.242;10.438;2023-04-24T09:03:47;14.60;99.90
18506;DHT22;9382;53.242;10.438;2023-04-24T09:06:17;14.70;99.90
18506;DHT22;9382;53.242;10.438;2023-04-24T09:08:45;14.80;99.90
18506;DHT22;9382;53.242;10.438;2023-04-24T09:11:13;15.10;99.90
18506;DHT22;9382;53.242;10.438;2023-04-24T09:13:40;15.40;99.90
18506;DHT22;9382;53.242;10.438;2023-04-24T09:16:07;15.50;99.90
18506;DHT22;9382;53.242;10.438;2023-04-24T09:18:34;15.70;99.90
18506;DHT22;9382;53.242;10.438;2023-04-24T09:21:03;15.60;99.90
18506;DHT22;9382;53.242;10.438;2023-04-24T09:23:32;15.50;99.90
18506;DHT22;9382;53.242;10.438;2023-04-24T09:26:00;15.50;99.90
18506;DHT22;9382;53.242;10.438;2023-04-24T09:28:30;15.10;99.90
18506;DHT22;9382;53.242;10.438;2023-04-24T09:31:08;14.60;99.90
18506;DHT22;9382;53.242;10.438;2023-04-24T09:33:36;14.40;99.90
18506;DHT22;9382;53.242;10.438;2023-04-24T09:36:03;14.30;99.90
18506;DHT22;9382;53.242;10.438;2023-04-24T09:38:34;14.30;99.90
18506;DHT22;9382;53.242;10.438;2023-04-24T09:41:01;14.30;99.90
18506;DHT22;9382;53.242;10.438;2023-04-24T09:43:29;14.30;99.90
18506;DHT22;9382;53.242;10.438;2023-04-24T09:45:57;14.30;99.90
18506;DHT22;9382;53.242;10.438;2023-04-24T09:48:31;14.50;99.90
18506;DHT22;9382;53.242;10.438;2023-04-24T09:50:58;14.70;99.90
18506;DHT22;9382;53.242;10.438;2023-04-24T09:53:26;14.90;99.90
18506;DHT22;9382;53.242;10.438;2023-04-24T09:55:55;14.90;99.90
18506;DHT22;9382;53.242;10.438;2023-04-24T09:58:25;14.60;99.90
18506;DHT22;9382;53.242;10.438;2023-04-24T10:00:56;14.40;99.90
18506;DHT22;9382;53.242;10.438;2023-04-24T10:03:24;14.20;99.90
18506;DHT22;9382;53.242;10.438;2023-04-24T10:05:52;14.10;99.90
18506;DHT22;9382;53.242;10.438;2023-04-24T10:08:19;14.30;99.90
18506;DHT22;9382;53.242;10.438;2023-04-24T10:10:47;14.40;99.90
18506;DHT22;9382;53.242;10.438;2023-04-24T10:13:15;14.50;99.90
18506;DHT22;9382;53.242;10.438;2023-04-24T10:15:42;14.80;99.90
18506;DHT22;9382;53.242;10.438;2023-04-24T10:18:10;15.10;99.90
18506;DHT22;9382;53.242;10.438;2023-04-24T10:20:39;15.40;99.90
18506;DHT22;9382;53.242;10.438;2023-04-24T10:23:06;15.30;99.90
18506;DHT22;9382;53.242;10.438;2023-04-24T10:25:35;15.40;99.90
18506;DHT22;9382;53.242;10.438;2023-04-24T10:28:02;15.70;99.90
18506;DHT22;9382;53.242;10.438;2023-04-24T10:30:32;15.90;99.90
18506;DHT22;9382;53.242;10.438;2023-04-24T10:33:01;16.00;99.90
18506;DHT22;9382;53.242;10.438;2023-04-24T10:35:30;15.80;99.90
18506;DHT22;9382;53.242;10.438;2023-04-24T10:38:00;16.10;99.90
18506;DHT22;9382;53.242;10.438;2023-04-24T10:40:31;16.10;99.90
18506;DHT22;9382;53.242;10.438;2023-04-24T10:42:59;16.40;99.90
18506;DHT22;9382;53.242;10.438;2023-04-24T10:45:26;16.90;99.90
18506;DHT22;9382;53.242;10.438;2023-04-24T10:48:04;17.00;99.90
18506;DHT22;9382;53.242;10.438;2023-04-24T10:50:43;16.60;99.90
18506;DHT22;9382;53.242;10.438;2023-04-24T10:53:14;15.80;99.90
18506;DHT22;9382;53.242;10.438;2023-04-24T10:55:43;15.40;99.90
18506;DHT22;9382;53.242;10.438;2023-04-24T10:58:10;15.10;99.90
18506;DHT22;9382;53.242;10.438;2023-04-24T11:00:39;15.10;99.90
18506;DHT22;9382;53.242;10.438;2023-04-24T11:03:23;15.10;99.90
18506;DHT22;9382;53.242;10.438;2023-04-24T11:05:54;15.20;99.90
18506;DHT22;9382;53.242;10.438;2023-04-24T11:08:25;15.60;99.90
18506;DHT22;9382;53.242;10.438;2023-04-24T11:11:01;16.10;99.90
18506;DHT22;9382;53.242;10.438;2023-04-24T11:14:02;16.30;99.90
18506;DHT22;9382;53.242;10.438;2023-04-24T11:16:30;16.20;99.90
18506;DHT22;9382;53.242;10.438;2023-04-24T11:19:05;15.90;99.90
18506;DHT22;9382;53.242;10.438;2023-04-24T11:21:38;15.70;99.90
18506;DHT22;9382;53.242;10.438;2023-04-24T11:24:24;15.50;99.90
18506;DHT22;9382;53.242;10.438;2023-04-24T11:26:51;15.40;99.90
18506;DHT22;9382;53.242;10.438;2023-04-24T11:29:20;15.70;99.90
18506;DHT22;9382;53.242;10.438;2023-04-24T11:31:47;16.60;99.90
18506;DHT22;9382;53.242;10.438;2023-04-24T11:34:18;16.80;99.90
18506;DHT22;9382;53.242;10.438;2023-04-24T11:36:45;16.40;99.90
18506;DHT22;9382;53.242;10.438;2023-04-24T11:39:13;15.90;99.90
18506;DHT22;9382;53.242;10.438;2023-04-24T11:41:40;15.90;99.90
18506;DHT22;9382;53.242;10.438;2023-04-24T11:44:09;15.90;99.90
18506;DHT22;9382;53.242;10.438;2023-04-24T11:46:36;16.30;99.90
18506;DHT22;9382;53.242;10.438;2023-04-24T11:49:05;16.40;99.90
18506;DHT22;9382;53.242;10.438;2023-04-24T11:51:34;16.40;99.90
18506;DHT22;9382;53.242;10.438;2023-04-24T11:54:01;16.70;99.90
18506;DHT22;9382;53.242;10.438;2023-04-24T11:56:28;16.60;99.90
18506;DHT22;9382;53.242;10.438;2023-04-24T11:58:55;16.20;99.90
18506;DHT22;9382;53.242;10.438;2023-04-24T12:01:22;15.90;99.90
18506;DHT22;9382;53.242;10.438;2023-04-24T12:03:49;15.50;99.90
18506;DHT22;9382;53.242;10.438;2023-04-24T12:06:17;15.00;99.90
18506;DHT22;9382;53.242;10.438;2023-04-24T12:08:47;14.60;99.90
18506;DHT22;9382;53.242;10.438;2023-04-24T12:11:16;14.30;99.90
18506;DHT22;9382;53.242;10.438;2023-04-24T12:13:44;14.30;99.90
18506;DHT22;9382;53.242;10.438;2023-04-24T12:16:11;14.20;99.90
18506;DHT22;9382;53.242;10.438;2023-04-24T12:18:42;14.40;99.90
18506;DHT22;9382;53.242;10.438;2023-04-24T12:21:16;14.50;99.90
18506;DHT22;9382;53.242;10.438;2023-04-24T12:23:44;14.60;99.90
18506;DHT22;9382;53.242;10.438;2023-04-24T12:26:15;14.50;99.90
18506;DHT22;9382;53.242;10.438;2023-04-24T12:28:42;14.70;99.90
18506;DHT22;9382;53.242;10.438;2023-04-24T12:31:09;14.70;99.90
18506;DHT22;9382;53.242;10.438;2023-04-24T12:33:36;14.90;99.90
18506;DHT22;9382;53.242;10.438;2023-04-24T12:36:04;15.00;99.90
18506;DHT22;9382;53.242;10.438;2023-04-24T12:38:32;15.00;99.90
18506;DHT22;9382;53.242;10.438;2023-04-24T12:41:07;15.20;99.90
18506;DHT22;9382;53.242;10.438;2023-04-24T12:43:35;15.30;99.90
18506;DHT22;9382;53.242;10.438;2023-04-24T12:46:03;15.30;99.90
18506;DHT22;9382;53.242;10.438;2023-04-24T12:48:30;15.30;99.90
18506;DHT22;9382;53.242;10.438;2023-04-24T12:50:57;15.00;99.90
18506;DHT22;9382;53.242;10.438;2023-04-24T12:53:27;14.80;99.90
18506;DHT22;9382;53.242;10.438;2023-04-24T12:55:54;14.60;99.90
18506;DHT22;9382;53.242;10.438;2023-04-24T12:58:22;14.40;99.90
18506;DHT22;9382;53.242;10.438;2023-04-24T13:00:50;14.30;99.90
18506;DHT22;9382;53.242;10.438;2023-04-24T13:03:17;14.10;99.90
18506;DHT22;9382;53.242;10.438;2023-04-24T13:05:44;13.80;99.90
18506;DHT22;9382;53.242;10.438;2023-04-24T13:08:11;13.80;99.90
18506;DHT22;9382;53.242;10.438;2023-04-24T13:10:39;13.70;99.90
18506;DHT22;9382;53.242;10.438;2023-04-24T13:13:06;13.70;99.90
18506;DHT22;9382;53.242;10.438;2023-04-24T13:15:33;13.70;99.90
18506;DHT22;9382;53.242;10.438;2023-04-24T13:18:02;13.70;99.90
18506;DHT22;9382;53.242;10.438;2023-04-24T13:20:29;13.60;99.90
18506;DHT22;9382;53.242;10.438;2023-04-24T13:22:55;13.50;99.90
18506;DHT22;9382;53.242;10.438;2023-04-24T13:25:22;13.40;99.90
18506;DHT22;9382;53.242;10.438;2023-04-24T13:27:50;13.40;99.90
18506;DHT22;9382;53.242;10.438;2023-04-24T13:30:17;13.30;99.90
18506;DHT22;9382;53.242;10.438;2023-04-24T13:32:44;13.30;99.90
18506;DHT22;9382;53.242;10.438;2023-04-24T13:35:12;13.30;99.90
18506;DHT22;9382;53.242;10.438;2023-04-24T13:37:38;13.40;99.90
18506;DHT22;9382;53.242;10.438;2023-04-24T13:40:06;13.50;99.90
18506;DHT22;9382;53.242;10.438;2023-04-24T13:42:33;13.60;99.90
18506;DHT22;9382;53.242;10.438;2023-04-24T13:45:00;13.80;99.90
18506;DHT22;9382;53.242;10.438;2023-04-24T13:47:27;14.10;99.90
18506;DHT22;9382;53.242;10.438;2023-04-24T13:49:54;14.60;99.90
18506;DHT22;9382;53.242;10.438;2023-04-24T13:52:22;14.90;99.90
18506;DHT22;9382;53.242;10.438;2023-04-24T13:54:52;14.80;99.90
18506;DHT22;9382;53.242;10.438;2023-04-24T13:57:19;14.90;99.90
18506;DHT22;9382;53.242;10.438;2023-04-24T13:59:46;15.00;99.90
18506;DHT22;9382;53.242;10.438;2023-04-24T14:02:13;14.90;99.90
18506;DHT22;9382;53.242;10.438;2023-04-24T14:04:40;14.40;99.90
18506;DHT22;9382;53.242;10.438;2023-04-24T14:07:06;14.10;99.90
18506;DHT22;9382;53.242;10.438;2023-04-24T14:09:35;13.90;99.90
18506;DHT22;9382;53.242;10.438;2023-04-24T14:12:02;13.70;99.90
18506;DHT22;9382;53.242;10.438;2023-04-24T14:14:29;13.50;99.90
18506;DHT22;9382;53.242;10.438;2023-04-24T14:16:56;13.40;99.90
18506;DHT22;9382;53.242;10.438;2023-04-24T14:19:24;13.40;99.90
18506;DHT22;9382;53.242;10.438;2023-04-24T14:21:50;13.40;99.90
18506;DHT22;9382;53.242;10.438;2023-04-24T14:24:18;13.40;99.90
18506;DHT22;9382;53.242;10.438;2023-04-24T14:26:46;13.30;99.90
18506;DHT22;9382;53.242;10.438;2023-04-24T14:29:13;13.30;99.90
18506;DHT22;9382;53.242;10.438;2023-04-24T14:31:40;13.40;99.90
18506;DHT22;9382;53.242;10.438;2023-04-24T14:34:07;13.50;99.90
18506;DHT22;9382;53.242;10.438;2023-04-24T14:36:34;13.50;99.90
18506;DHT22;9382;53.242;10.438;2023-04-24T14:39:01;13.60;99.90
18506;DHT22;9382;53.242;10.438;2023-04-24T14:41:31;13.60;99.90
18506;DHT22;9382;53.242;10.438;2023-04-24T14:44:02;13.50;99.90
18506;DHT22;9382;53.242;10.438;2023-04-24T14:46:29;13.20;99.90
18506;DHT22;9382;53.242;10.438;2023-04-24T14:48:56;13.00;99.90
18506;DHT22;9382;53.242;10.438;2023-04-24T14:51:23;12.80;99.90
18506;DHT22;9382;53.242;10.438;2023-04-24T14:53:50;12.60;99.90
18506;DHT22;9382;53.242;10.438;2023-04-24T14:56:17;12.40;99.90
18506;DHT22;9382;53.242;10.438;2023-04-24T14:58:44;12.30;99.90
18506;DHT22;9382;53.242;10.438;2023-04-24T15:01:12;12.10;99.90
18506;DHT22;9382;53.242;10.438;2023-04-24T15:03:39;11.90;99.90
18506;DHT22;9382;53.242;10.438;2023-04-24T15:06:06;11.70;99.90
18506;DHT22;9382;53.242;10.438;2023-04-24T15:08:33;11.60;99.90
18506;DHT22;9382;53.242;10.438;2023-04-24T15:10:59;11.40;99.90
18506;DHT22;9382;53.242;10.438;2023-04-24T15:13:26;11.30;99.90
18506;DHT22;9382;53.242;10.438;2023-04-24T15:15:53;11.30;99.90
18506;DHT22;9382;53.242;10.438;2023-04-24T15:18:21;11.30;99.90
18506;DHT22;9382;53.242;10.438;2023-04-24T15:20:48;11.30;99.90
18506;DHT22;9382;53.242;10.438;2023-04-24T15:23:15;11.20;99.90
18506;DHT22;9382;53.242;10.438;2023-04-24T15:25:41;11.20;99.90
18506;DHT22;9382;53.242;10.438;2023-04-24T15:28:09;11.10;99.90
18506;DHT22;9382;53.242;10.438;2023-04-24T15:30:36;11.00;99.90
18506;DHT22;9382;53.242;10.438;2023-04-24T15:33:03;11.00;99.90
18506;DHT22;9382;53.242;10.438;2023-04-24T15:35:31;10.80;99.90